sensor_id;sensor_type;location;lat;lon;timestamp;P1;durP1;ratioP1;P2;durP2;ratioP2
65665;SDS011;52365;47.464;18.976;2024-03-17T00:00:18;2.08;;;1.10;;
65665;SDS011;52365;47.464;18.976;2024-03-17T00:00:39;1.62;;;0.90;;
65665;SDS011;52365;47.464;18.976;2024-03-17T00:01:01;1.75;;;0.90;;
65665;SDS011;52365;47.464;18.976;2024-03-17T00:01:22;1.33;;;0.80;;
65665;SDS011;52365;47.464;18.976;2024-03-17T00:01:43;1.37;;;0.80;;
65665;SDS011;52365;47.464;18.976;2024-03-17T00:02:04;1.52;;;0.80;;
65665;SDS011;52365;47.464;18.976;2024-03-17T00:02:25;1.33;;;0.90;;
65665;SDS011;52365;47.464;18.976;2024-03-17T00:02:46;1.62;;;0.90;;
65665;SDS011;52365;47.464;18.976;2024-03-17T00:03:07;1.65;;;0.80;;
65665;SDS011;52365;47.464;18.976;2024-03-17T00:03:32;1.80;;;0.80;;
65665;SDS011;52365;47.464;18.976;2024-03-17T00:03:53;1.98;;;0.80;;
65665;SDS011;52365;47.464;18.976;2024-03-17T00:04:14;2.25;;;1.00;;
65665;SDS011;52365;47.464;18.976;2024-03-17T00:04:35;1.50;;;0.90;;
65665;SDS011;52365;47.464;18.976;2024-03-17T00:04:55;1.60;;;0.90;;
65665;SDS011;52365;47.464;18.976;2024-03-17T00:05:16;1.98;;;0.90;;
65665;SDS011;52365;47.464;18.976;2024-03-17T00:05:39;1.62;;;0.90;;
65665;SDS011;52365;47.464;18.976;2024-03-17T00:06:00;1.40;;;0.80;;
65665;SDS011;52365;47.464;18.976;2024-03-17T00:06:21;1.92;;;0.90;;
65665;SDS011;52365;47.464;18.976;2024-03-17T00:06:43;1.17;;;0.75;;
65665;SDS011;52365;47.464;18.976;2024-03-17T00:07:03;1.12;;;0.80;;
65665;SDS011;52365;47.464;18.976;2024-03-17T00:07:25;1.50;;;0.90;;
65665;SDS011;52365;47.464;18.976;2024-03-17T00:07:41;1.73;;;0.90;;
65665;SDS011;52365;47.464;18.976;2024-03-17T00:08:02;1.90;;;0.80;;
65665;SDS011;52365;47.464;18.976;2024-03-17T00:08:26;1.52;;;0.82;;
65665;SDS011;52365;47.464;18.976;2024-03-17T00:08:48;1.98;;;0.95;;
65665;SDS011;52365;47.464;18.976;2024-03-17T00:09:04;3.53;;;1.00;;
65665;SDS011;52365;47.464;18.976;2024-03-17T00:09:26;2.10;;;0.82;;
65665;SDS011;52365;47.464;18.976;2024-03-17T00:09:47;1.45;;;0.80;;
65665;SDS011;52365;47.464;18.976;2024-03-17T00:10:09;1.55;;;0.93;;
65665;SDS011;52365;47.464;18.976;2024-03-17T00:10:31;1.50;;;1.05;;
65665;SDS011;52365;47.464;18.976;2024-03-17T00:10:53;1.80;;;1.15;;
65665;SDS011;52365;47.464;18.976;2024-03-17T00:11:15;1.95;;;0.90;;
65665;SDS011;52365;47.464;18.976;2024-03-17T00:11:36;1.67;;;0.85;;
65665;SDS011;52365;47.464;18.976;2024-03-17T00:11:57;2.00;;;1.00;;
65665;SDS011;52365;47.464;18.976;2024-03-17T00:12:18;2.40;;;1.02;;
65665;SDS011;52365;47.464;18.976;2024-03-17T00:12:39;2.67;;;1.00;;
65665;SDS011;52365;47.464;18.976;2024-03-17T00:12:56;2.20;;;0.80;;
65665;SDS011;52365;47.464;18.976;2024-03-17T00:13:18;1.87;;;0.80;;
65665;SDS011;52365;47.464;18.976;2024-03-17T00:13:39;1.83;;;0.90;;
65665;SDS011;52365;47.464;18.976;2024-03-17T00:14:00;2.15;;;0.90;;
65665;SDS011;52365;47.464;18.976;2024-03-17T00:14:25;2.90;;;0.90;;
65665;SDS011;52365;47.464;18.976;2024-03-17T00:14:48;1.70;;;0.82;;
65665;SDS011;52365;47.464;18.976;2024-03-17T00:15:09;1.73;;;0.80;;
65665;SDS011;52365;47.464;18.976;2024-03-17T00:15:26;1.70;;;0.95;;
65665;SDS011;52365;47.464;18.976;2024-03-17T00:15:42;1.85;;;0.90;;
65665;SDS011;52365;47.464;18.976;2024-03-17T00:16:04;2.20;;;0.80;;
65665;SDS011;52365;47.464;18.976;2024-03-17T00:16:25;1.62;;;0.85;;
65665;SDS011;52365;47.464;18.976;2024-03-17T00:16:46;1.35;;;0.88;;
65665;SDS011;52365;47.464;18.976;2024-03-17T00:17:02;1.55;;;0.90;;
65665;SDS011;52365;47.464;18.976;2024-03-17T00:17:24;1.55;;;0.93;;
65665;SDS011;52365;47.464;18.976;2024-03-17T00:17:45;1.60;;;0.90;;
65665;SDS011;52365;47.464;18.976;2024-03-17T00:18:05;1.70;;;0.95;;
65665;SDS011;52365;47.464;18.976;2024-03-17T00:18:26;1.80;;;1.00;;
65665;SDS011;52365;47.464;18.976;2024-03-17T00:18:48;1.80;;;0.90;;
65665;SDS011;52365;47.464;18.976;2024-03-17T00:19:09;2.00;;;0.98;;
65665;SDS011;52365;47.464;18.976;2024-03-17T00:19:31;2.60;;;0.95;;
65665;SDS011;52365;47.464;18.976;2024-03-17T00:19:52;1.60;;;0.90;;
65665;SDS011;52365;47.464;18.976;2024-03-17T00:20:13;1.50;;;0.88;;
65665;SDS011;52365;47.464;18.976;2024-03-17T00:20:39;2.20;;;0.90;;
65665;SDS011;52365;47.464;18.976;2024-03-17T00:21:01;2.33;;;0.88;;
65665;SDS011;52365;47.464;18.976;2024-03-17T00:21:22;1.83;;;1.02;;
65665;SDS011;52365;47.464;18.976;2024-03-17T00:21:45;1.73;;;0.90;;
65665;SDS011;52365;47.464;18.976;2024-03-17T00:22:05;1.95;;;0.95;;
65665;SDS011;52365;47.464;18.976;2024-03-17T00:22:29;1.90;;;0.82;;
65665;SDS011;52365;47.464;18.976;2024-03-17T00:22:50;1.92;;;0.90;;
65665;SDS011;52365;47.464;18.976;2024-03-17T00:23:13;1.90;;;0.90;;
65665;SDS011;52365;47.464;18.976;2024-03-17T00:23:34;2.08;;;1.05;;
65665;SDS011;52365;47.464;18.976;2024-03-17T00:23:55;2.42;;;1.10;;
65665;SDS011;52365;47.464;18.976;2024-03-17T00:24:18;1.52;;;0.98;;
65665;SDS011;52365;47.464;18.976;2024-03-17T00:24:40;2.05;;;1.17;;
65665;SDS011;52365;47.464;18.976;2024-03-17T00:25:03;1.83;;;1.25;;
65665;SDS011;52365;47.464;18.976;2024-03-17T00:25:24;2.58;;;1.35;;
65665;SDS011;52365;47.464;18.976;2024-03-17T00:25:45;2.58;;;1.20;;
65665;SDS011;52365;47.464;18.976;2024-03-17T00:26:01;1.55;;;1.00;;
65665;SDS011;52365;47.464;18.976;2024-03-17T00:26:22;1.40;;;0.90;;
65665;SDS011;52365;47.464;18.976;2024-03-17T00:26:43;2.25;;;1.42;;
65665;SDS011;52365;47.464;18.976;2024-03-17T00:27:05;2.78;;;1.45;;
65665;SDS011;52365;47.464;18.976;2024-03-17T00:27:26;6.07;;;4.30;;
65665;SDS011;52365;47.464;18.976;2024-03-17T00:27:47;7.25;;;5.75;;
65665;SDS011;52365;47.464;18.976;2024-03-17T00:28:10;7.35;;;5.00;;
65665;SDS011;52365;47.464;18.976;2024-03-17T00:28:32;2.45;;;1.70;;
65665;SDS011;52365;47.464;18.976;2024-03-17T00:28:53;2.45;;;1.40;;
65665;SDS011;52365;47.464;18.976;2024-03-17T00:29:14;2.17;;;1.23;;
65665;SDS011;52365;47.464;18.976;2024-03-17T00:29:35;3.10;;;1.60;;
65665;SDS011;52365;47.464;18.976;2024-03-17T00:29:56;2.60;;;1.40;;
65665;SDS011;52365;47.464;18.976;2024-03-17T00:30:17;2.00;;;1.10;;
65665;SDS011;52365;47.464;18.976;2024-03-17T00:30:38;1.55;;;1.00;;
65665;SDS011;52365;47.464;18.976;2024-03-17T00:30:59;1.50;;;0.90;;
65665;SDS011;52365;47.464;18.976;2024-03-17T00:31:23;1.30;;;0.98;;
65665;SDS011;52365;47.464;18.976;2024-03-17T00:31:44;2.25;;;1.05;;
65665;SDS011;52365;47.464;18.976;2024-03-17T00:32:05;2.20;;;1.05;;
65665;SDS011;52365;47.464;18.976;2024-03-17T00:32:27;2.00;;;1.05;;
65665;SDS011;52365;47.464;18.976;2024-03-17T00:32:48;2.97;;;1.10;;
65665;SDS011;52365;47.464;18.976;2024-03-17T00:33:09;2.05;;;1.10;;
65665;SDS011;52365;47.464;18.976;2024-03-17T00:33:30;1.75;;;1.00;;
65665;SDS011;52365;47.464;18.976;2024-03-17T00:33:52;2.22;;;1.10;;
65665;SDS011;52365;47.464;18.976;2024-03-17T00:34:13;1.92;;;1.10;;
65665;SDS011;52365;47.464;18.976;2024-03-17T00:34:33;2.00;;;1.00;;
65665;SDS011;52365;47.464;18.976;2024-03-17T00:34:54;2.37;;;1.00;;
65665;SDS011;52365;47.464;18.976;2024-03-17T00:35:15;2.55;;;1.08;;
65665;SDS011;52365;47.464;18.976;2024-03-17T00:35:41;2.03;;;1.00;;
65665;SDS011;52365;47.464;18.976;2024-03-17T00:36:02;1.87;;;1.02;;
65665;SDS011;52365;47.464;18.976;2024-03-17T00:36:23;2.40;;;1.15;;
65665;SDS011;52365;47.464;18.976;2024-03-17T00:36:44;2.40;;;1.10;;
65665;SDS011;52365;47.464;18.976;2024-03-17T00:37:05;2.15;;;1.02;;
65665;SDS011;52365;47.464;18.976;2024-03-17T00:37:25;1.65;;;1.00;;
65665;SDS011;52365;47.464;18.976;2024-03-17T00:37:47;1.67;;;1.10;;
65665;SDS011;52365;47.464;18.976;2024-03-17T00:38:08;2.15;;;1.05;;
65665;SDS011;52365;47.464;18.976;2024-03-17T00:38:33;2.60;;;1.25;;
65665;SDS011;52365;47.464;18.976;2024-03-17T00:38:53;2.22;;;1.25;;
65665;SDS011;52365;47.464;18.976;2024-03-17T00:39:14;2.05;;;1.20;;
65665;SDS011;52365;47.464;18.976;2024-03-17T00:39:35;1.60;;;1.00;;
65665;SDS011;52365;47.464;18.976;2024-03-17T00:39:56;1.42;;;0.90;;
65665;SDS011;52365;47.464;18.976;2024-03-17T00:40:18;1.70;;;1.10;;
65665;SDS011;52365;47.464;18.976;2024-03-17T00:40:39;1.92;;;0.98;;
65665;SDS011;52365;47.464;18.976;2024-03-17T00:41:05;2.20;;;0.95;;
65665;SDS011;52365;47.464;18.976;2024-03-17T00:41:27;2.33;;;1.20;;
65665;SDS011;52365;47.464;18.976;2024-03-17T00:41:47;1.52;;;0.95;;
65665;SDS011;52365;47.464;18.976;2024-03-17T00:42:09;1.95;;;0.93;;
65665;SDS011;52365;47.464;18.976;2024-03-17T00:42:30;2.08;;;0.98;;
65665;SDS011;52365;47.464;18.976;2024-03-17T00:42:51;1.80;;;1.00;;
65665;SDS011;52365;47.464;18.976;2024-03-17T00:43:14;2.22;;;1.02;;
65665;SDS011;52365;47.464;18.976;2024-03-17T00:43:35;2.00;;;0.98;;
65665;SDS011;52365;47.464;18.976;2024-03-17T00:43:57;2.12;;;1.00;;
65665;SDS011;52365;47.464;18.976;2024-03-17T00:44:18;2.05;;;1.08;;
65665;SDS011;52365;47.464;18.976;2024-03-17T00:44:40;2.50;;;1.20;;
65665;SDS011;52365;47.464;18.976;2024-03-17T00:45:01;2.03;;;1.00;;
65665;SDS011;52365;47.464;18.976;2024-03-17T00:45:23;2.42;;;1.10;;
65665;SDS011;52365;47.464;18.976;2024-03-17T00:45:50;2.10;;;1.10;;
65665;SDS011;52365;47.464;18.976;2024-03-17T00:46:12;1.85;;;1.10;;
65665;SDS011;52365;47.464;18.976;2024-03-17T00:46:33;2.78;;;1.00;;
65665;SDS011;52365;47.464;18.976;2024-03-17T00:46:54;3.25;;;1.00;;
65665;SDS011;52365;47.464;18.976;2024-03-17T00:47:15;1.70;;;1.00;;
65665;SDS011;52365;47.464;18.976;2024-03-17T00:47:36;2.17;;;1.20;;
65665;SDS011;52365;47.464;18.976;2024-03-17T00:47:57;2.10;;;1.10;;
65665;SDS011;52365;47.464;18.976;2024-03-17T00:48:18;1.67;;;0.90;;
65665;SDS011;52365;47.464;18.976;2024-03-17T00:48:39;2.10;;;1.10;;
65665;SDS011;52365;47.464;18.976;2024-03-17T00:49:00;1.85;;;1.10;;
65665;SDS011;52365;47.464;18.976;2024-03-17T00:49:21;1.30;;;1.00;;
65665;SDS011;52365;47.464;18.976;2024-03-17T00:49:42;1.80;;;1.17;;
65665;SDS011;52365;47.464;18.976;2024-03-17T00:50:03;3.83;;;1.92;;
65665;SDS011;52365;47.464;18.976;2024-03-17T00:50:27;2.35;;;1.58;;
65665;SDS011;52365;47.464;18.976;2024-03-17T00:50:43;2.22;;;1.30;;
65665;SDS011;52365;47.464;18.976;2024-03-17T00:51:05;1.92;;;1.20;;
65665;SDS011;52365;47.464;18.976;2024-03-17T00:51:26;5.37;;;3.33;;
65665;SDS011;52365;47.464;18.976;2024-03-17T00:51:42;8.88;;;5.53;;
65665;SDS011;52365;47.464;18.976;2024-03-17T00:52:03;6.22;;;4.25;;
65665;SDS011;52365;47.464;18.976;2024-03-17T00:52:24;4.20;;;2.22;;
65665;SDS011;52365;47.464;18.976;2024-03-17T00:52:45;2.72;;;1.73;;
65665;SDS011;52365;47.464;18.976;2024-03-17T00:53:06;2.47;;;1.48;;
65665;SDS011;52365;47.464;18.976;2024-03-17T00:53:28;2.50;;;1.40;;
65665;SDS011;52365;47.464;18.976;2024-03-17T00:53:49;2.05;;;1.25;;
65665;SDS011;52365;47.464;18.976;2024-03-17T00:54:10;1.90;;;1.20;;
65665;SDS011;52365;47.464;18.976;2024-03-17T00:54:31;2.20;;;1.08;;
65665;SDS011;52365;47.464;18.976;2024-03-17T00:54:52;1.40;;;0.93;;
65665;SDS011;52365;47.464;18.976;2024-03-17T00:55:14;1.80;;;1.10;;
65665;SDS011;52365;47.464;18.976;2024-03-17T00:55:30;1.92;;;1.30;;
65665;SDS011;52365;47.464;18.976;2024-03-17T00:55:54;2.40;;;1.30;;
65665;SDS011;52365;47.464;18.976;2024-03-17T00:56:18;1.98;;;1.10;;
65665;SDS011;52365;47.464;18.976;2024-03-17T00:56:40;2.17;;;1.10;;
65665;SDS011;52365;47.464;18.976;2024-03-17T00:57:01;1.80;;;1.10;;
65665;SDS011;52365;47.464;18.976;2024-03-17T00:57:22;2.28;;;1.20;;
65665;SDS011;52365;47.464;18.976;2024-03-17T00:57:43;2.37;;;1.12;;
65665;SDS011;52365;47.464;18.976;2024-03-17T00:58:05;1.70;;;1.10;;
65665;SDS011;52365;47.464;18.976;2024-03-17T00:58:26;1.95;;;1.20;;
65665;SDS011;52365;47.464;18.976;2024-03-17T00:58:47;2.47;;;1.30;;
65665;SDS011;52365;47.464;18.976;2024-03-17T00:59:08;3.20;;;1.27;;
65665;SDS011;52365;47.464;18.976;2024-03-17T00:59:29;2.87;;;1.20;;
65665;SDS011;52365;47.464;18.976;2024-03-17T00:59:45;2.10;;;1.10;;
65665;SDS011;52365;47.464;18.976;2024-03-17T01:00:01;2.50;;;1.20;;
65665;SDS011;52365;47.464;18.976;2024-03-17T01:00:23;3.58;;;1.15;;
65665;SDS011;52365;47.464;18.976;2024-03-17T01:00:39;3.08;;;1.20;;
65665;SDS011;52365;47.464;18.976;2024-03-17T01:01:00;2.10;;;1.20;;
65665;SDS011;52365;47.464;18.976;2024-03-17T01:01:21;1.90;;;1.20;;
65665;SDS011;52365;47.464;18.976;2024-03-17T01:01:42;1.60;;;1.10;;
65665;SDS011;52365;47.464;18.976;2024-03-17T01:02:04;2.00;;;1.20;;
65665;SDS011;52365;47.464;18.976;2024-03-17T01:02:25;1.62;;;1.00;;
65665;SDS011;52365;47.464;18.976;2024-03-17T01:02:46;1.40;;;1.00;;
65665;SDS011;52365;47.464;18.976;2024-03-17T01:03:07;2.08;;;1.10;;
65665;SDS011;52365;47.464;18.976;2024-03-17T01:03:28;1.65;;;1.00;;
65665;SDS011;52365;47.464;18.976;2024-03-17T01:03:49;1.87;;;1.08;;
65665;SDS011;52365;47.464;18.976;2024-03-17T01:04:10;2.78;;;1.23;;
65665;SDS011;52365;47.464;18.976;2024-03-17T01:04:30;1.87;;;1.17;;
65665;SDS011;52365;47.464;18.976;2024-03-17T01:04:54;2.25;;;1.30;;
65665;SDS011;52365;47.464;18.976;2024-03-17T01:05:15;2.60;;;1.30;;
65665;SDS011;52365;47.464;18.976;2024-03-17T01:05:37;2.05;;;1.17;;
65665;SDS011;52365;47.464;18.976;2024-03-17T01:06:03;2.80;;;1.50;;
65665;SDS011;52365;47.464;18.976;2024-03-17T01:06:25;2.25;;;1.25;;
65665;SDS011;52365;47.464;18.976;2024-03-17T01:06:46;2.90;;;1.65;;
65665;SDS011;52365;47.464;18.976;2024-03-17T01:07:06;7.72;;;4.65;;
65665;SDS011;52365;47.464;18.976;2024-03-17T01:07:27;7.45;;;4.75;;
65665;SDS011;52365;47.464;18.976;2024-03-17T01:07:48;4.75;;;3.03;;
65665;SDS011;52365;47.464;18.976;2024-03-17T01:08:10;2.25;;;1.42;;
65665;SDS011;52365;47.464;18.976;2024-03-17T01:08:32;1.98;;;1.35;;
65665;SDS011;52365;47.464;18.976;2024-03-17T01:08:52;1.90;;;1.20;;
65665;SDS011;52365;47.464;18.976;2024-03-17T01:09:13;1.90;;;1.12;;
65665;SDS011;52365;47.464;18.976;2024-03-17T01:09:34;1.90;;;1.30;;
65665;SDS011;52365;47.464;18.976;2024-03-17T01:09:55;2.03;;;1.30;;
65665;SDS011;52365;47.464;18.976;2024-03-17T01:10:17;1.95;;;1.33;;
65665;SDS011;52365;47.464;18.976;2024-03-17T01:10:38;2.10;;;1.40;;
65665;SDS011;52365;47.464;18.976;2024-03-17T01:11:00;1.98;;;1.30;;
65665;SDS011;52365;47.464;18.976;2024-03-17T01:11:21;1.98;;;1.12;;
65665;SDS011;52365;47.464;18.976;2024-03-17T01:11:42;1.70;;;1.20;;
65665;SDS011;52365;47.464;18.976;2024-03-17T01:12:04;1.80;;;1.27;;
65665;SDS011;52365;47.464;18.976;2024-03-17T01:12:26;2.58;;;1.30;;
65665;SDS011;52365;47.464;18.976;2024-03-17T01:12:47;2.42;;;1.40;;
65665;SDS011;52365;47.464;18.976;2024-03-17T01:13:08;1.80;;;1.20;;
65665;SDS011;52365;47.464;18.976;2024-03-17T01:13:30;2.17;;;1.23;;
65665;SDS011;52365;47.464;18.976;2024-03-17T01:13:51;1.95;;;1.12;;
65665;SDS011;52365;47.464;18.976;2024-03-17T01:14:12;2.20;;;1.20;;
65665;SDS011;52365;47.464;18.976;2024-03-17T01:14:33;1.80;;;1.25;;
65665;SDS011;52365;47.464;18.976;2024-03-17T01:14:54;2.25;;;1.33;;
65665;SDS011;52365;47.464;18.976;2024-03-17T01:15:15;2.30;;;1.37;;
65665;SDS011;52365;47.464;18.976;2024-03-17T01:15:37;2.17;;;1.37;;
65665;SDS011;52365;47.464;18.976;2024-03-17T01:15:58;1.60;;;1.25;;
65665;SDS011;52365;47.464;18.976;2024-03-17T01:16:19;1.50;;;1.20;;
65665;SDS011;52365;47.464;18.976;2024-03-17T01:16:40;1.50;;;1.27;;
65665;SDS011;52365;47.464;18.976;2024-03-17T01:17:01;1.70;;;1.27;;
65665;SDS011;52365;47.464;18.976;2024-03-17T01:17:25;2.28;;;1.27;;
65665;SDS011;52365;47.464;18.976;2024-03-17T01:17:46;2.15;;;1.12;;
65665;SDS011;52365;47.464;18.976;2024-03-17T01:18:07;2.53;;;1.50;;
65665;SDS011;52365;47.464;18.976;2024-03-17T01:18:28;2.03;;;1.50;;
65665;SDS011;52365;47.464;18.976;2024-03-17T01:18:49;1.92;;;1.30;;
65665;SDS011;52365;47.464;18.976;2024-03-17T01:19:10;2.67;;;1.30;;
65665;SDS011;52365;47.464;18.976;2024-03-17T01:19:31;2.60;;;1.48;;
65665;SDS011;52365;47.464;18.976;2024-03-17T01:19:52;1.77;;;1.40;;
65665;SDS011;52365;47.464;18.976;2024-03-17T01:20:13;2.05;;;1.35;;
65665;SDS011;52365;47.464;18.976;2024-03-17T01:20:35;2.58;;;1.25;;
65665;SDS011;52365;47.464;18.976;2024-03-17T01:20:57;2.60;;;1.45;;
65665;SDS011;52365;47.464;18.976;2024-03-17T01:21:20;1.70;;;1.20;;
65665;SDS011;52365;47.464;18.976;2024-03-17T01:21:41;1.90;;;1.50;;
65665;SDS011;52365;47.464;18.976;2024-03-17T01:21:57;2.58;;;1.60;;
65665;SDS011;52365;47.464;18.976;2024-03-17T01:22:20;2.50;;;1.50;;
65665;SDS011;52365;47.464;18.976;2024-03-17T01:22:42;2.28;;;1.45;;
65665;SDS011;52365;47.464;18.976;2024-03-17T01:23:04;2.00;;;1.30;;
65665;SDS011;52365;47.464;18.976;2024-03-17T01:23:25;2.75;;;1.50;;
65665;SDS011;52365;47.464;18.976;2024-03-17T01:23:49;1.98;;;1.30;;
65665;SDS011;52365;47.464;18.976;2024-03-17T01:24:10;1.95;;;1.30;;
65665;SDS011;52365;47.464;18.976;2024-03-17T01:24:31;2.30;;;1.37;;
65665;SDS011;52365;47.464;18.976;2024-03-17T01:24:54;2.47;;;1.40;;
65665;SDS011;52365;47.464;18.976;2024-03-17T01:25:15;2.17;;;1.30;;
65665;SDS011;52365;47.464;18.976;2024-03-17T01:25:36;1.90;;;1.42;;
65665;SDS011;52365;47.464;18.976;2024-03-17T01:25:57;2.60;;;1.50;;
65665;SDS011;52365;47.464;18.976;2024-03-17T01:26:18;2.75;;;1.50;;
65665;SDS011;52365;47.464;18.976;2024-03-17T01:26:39;2.83;;;1.50;;
65665;SDS011;52365;47.464;18.976;2024-03-17T01:27:00;2.50;;;1.50;;
65665;SDS011;52365;47.464;18.976;2024-03-17T01:27:22;2.12;;;1.48;;
65665;SDS011;52365;47.464;18.976;2024-03-17T01:27:43;2.75;;;1.52;;
65665;SDS011;52365;47.464;18.976;2024-03-17T01:28:04;3.25;;;1.50;;
65665;SDS011;52365;47.464;18.976;2024-03-17T01:28:25;2.20;;;1.60;;
65665;SDS011;52365;47.464;18.976;2024-03-17T01:28:47;2.60;;;1.65;;
65665;SDS011;52365;47.464;18.976;2024-03-17T01:29:08;2.60;;;1.60;;
65665;SDS011;52365;47.464;18.976;2024-03-17T01:29:29;2.50;;;1.60;;
65665;SDS011;52365;47.464;18.976;2024-03-17T01:29:50;2.28;;;1.62;;
65665;SDS011;52365;47.464;18.976;2024-03-17T01:30:11;1.92;;;1.48;;
65665;SDS011;52365;47.464;18.976;2024-03-17T01:30:32;2.80;;;1.65;;
65665;SDS011;52365;47.464;18.976;2024-03-17T01:30:54;2.45;;;1.60;;
65665;SDS011;52365;47.464;18.976;2024-03-17T01:31:15;3.37;;;1.50;;
65665;SDS011;52365;47.464;18.976;2024-03-17T01:31:36;2.15;;;1.60;;
65665;SDS011;52365;47.464;18.976;2024-03-17T01:31:57;2.37;;;1.60;;
65665;SDS011;52365;47.464;18.976;2024-03-17T01:32:18;3.42;;;1.65;;
65665;SDS011;52365;47.464;18.976;2024-03-17T01:32:40;4.57;;;1.80;;
65665;SDS011;52365;47.464;18.976;2024-03-17T01:32:56;2.40;;;1.65;;
65665;SDS011;52365;47.464;18.976;2024-03-17T01:33:17;2.42;;;1.83;;
65665;SDS011;52365;47.464;18.976;2024-03-17T01:33:38;2.55;;;1.80;;
65665;SDS011;52365;47.464;18.976;2024-03-17T01:34:00;3.22;;;1.62;;
65665;SDS011;52365;47.464;18.976;2024-03-17T01:34:21;3.53;;;1.50;;
65665;SDS011;52365;47.464;18.976;2024-03-17T01:34:43;2.25;;;1.67;;
65665;SDS011;52365;47.464;18.976;2024-03-17T01:35:04;2.40;;;1.90;;
65665;SDS011;52365;47.464;18.976;2024-03-17T01:35:26;2.45;;;1.77;;
65665;SDS011;52365;47.464;18.976;2024-03-17T01:35:47;2.40;;;1.60;;
65665;SDS011;52365;47.464;18.976;2024-03-17T01:36:08;3.55;;;1.73;;
65665;SDS011;52365;47.464;18.976;2024-03-17T01:36:29;3.95;;;1.73;;
65665;SDS011;52365;47.464;18.976;2024-03-17T01:36:50;2.30;;;1.70;;
65665;SDS011;52365;47.464;18.976;2024-03-17T01:37:11;2.50;;;1.70;;
65665;SDS011;52365;47.464;18.976;2024-03-17T01:37:32;2.70;;;1.80;;
65665;SDS011;52365;47.464;18.976;2024-03-17T01:37:48;2.78;;;1.75;;
65665;SDS011;52365;47.464;18.976;2024-03-17T01:38:09;2.87;;;1.85;;
65665;SDS011;52365;47.464;18.976;2024-03-17T01:38:33;2.10;;;1.77;;
65665;SDS011;52365;47.464;18.976;2024-03-17T01:38:54;2.60;;;1.70;;
65665;SDS011;52365;47.464;18.976;2024-03-17T01:39:15;2.60;;;1.60;;
65665;SDS011;52365;47.464;18.976;2024-03-17T01:39:37;2.22;;;1.60;;
65665;SDS011;52365;47.464;18.976;2024-03-17T01:39:58;2.22;;;1.67;;
65665;SDS011;52365;47.464;18.976;2024-03-17T01:40:19;2.50;;;1.75;;
65665;SDS011;52365;47.464;18.976;2024-03-17T01:40:41;2.47;;;1.90;;
65665;SDS011;52365;47.464;18.976;2024-03-17T01:41:03;3.53;;;2.00;;
65665;SDS011;52365;47.464;18.976;2024-03-17T01:41:25;3.42;;;2.00;;
65665;SDS011;52365;47.464;18.976;2024-03-17T01:41:46;2.28;;;1.62;;
65665;SDS011;52365;47.464;18.976;2024-03-17T01:42:07;2.15;;;1.70;;
65665;SDS011;52365;47.464;18.976;2024-03-17T01:42:28;1.90;;;1.60;;
65665;SDS011;52365;47.464;18.976;2024-03-17T01:42:49;2.47;;;1.80;;
65665;SDS011;52365;47.464;18.976;2024-03-17T01:43:10;2.60;;;1.80;;
65665;SDS011;52365;47.464;18.976;2024-03-17T01:43:34;3.15;;;2.03;;
65665;SDS011;52365;47.464;18.976;2024-03-17T01:43:55;3.12;;;2.00;;
65665;SDS011;52365;47.464;18.976;2024-03-17T01:44:22;2.87;;;2.00;;
65665;SDS011;52365;47.464;18.976;2024-03-17T01:44:44;2.70;;;1.90;;
65665;SDS011;52365;47.464;18.976;2024-03-17T01:45:38;3.08;;;1.83;;
65665;SDS011;52365;47.464;18.976;2024-03-17T01:45:59;3.00;;;1.98;;
65665;SDS011;52365;47.464;18.976;2024-03-17T01:46:20;2.35;;;1.77;;
65665;SDS011;52365;47.464;18.976;2024-03-17T01:46:41;2.22;;;1.73;;
65665;SDS011;52365;47.464;18.976;2024-03-17T01:47:02;2.80;;;1.77;;
65665;SDS011;52365;47.464;18.976;2024-03-17T01:47:24;2.95;;;1.70;;
65665;SDS011;52365;47.464;18.976;2024-03-17T01:47:45;2.25;;;1.80;;
65665;SDS011;52365;47.464;18.976;2024-03-17T01:48:08;2.47;;;1.90;;
65665;SDS011;52365;47.464;18.976;2024-03-17T01:48:35;2.08;;;1.67;;
65665;SDS011;52365;47.464;18.976;2024-03-17T01:48:56;2.35;;;1.80;;
65665;SDS011;52365;47.464;18.976;2024-03-17T01:49:18;3.30;;;1.90;;
65665;SDS011;52365;47.464;18.976;2024-03-17T01:49:41;2.60;;;2.00;;
65665;SDS011;52365;47.464;18.976;2024-03-17T01:50:01;3.08;;;1.83;;
65665;SDS011;52365;47.464;18.976;2024-03-17T01:50:23;3.80;;;1.90;;
65665;SDS011;52365;47.464;18.976;2024-03-17T01:50:45;3.50;;;1.85;;
65665;SDS011;52365;47.464;18.976;2024-03-17T01:51:13;3.42;;;2.08;;
65665;SDS011;52365;47.464;18.976;2024-03-17T01:51:36;2.35;;;1.90;;
65665;SDS011;52365;47.464;18.976;2024-03-17T01:51:57;2.55;;;1.90;;
65665;SDS011;52365;47.464;18.976;2024-03-17T01:52:14;2.50;;;1.90;;
65665;SDS011;52365;47.464;18.976;2024-03-17T01:52:35;3.65;;;1.90;;
65665;SDS011;52365;47.464;18.976;2024-03-17T01:52:58;3.58;;;1.90;;
65665;SDS011;52365;47.464;18.976;2024-03-17T01:53:21;2.45;;;1.90;;
65665;SDS011;52365;47.464;18.976;2024-03-17T01:53:44;2.50;;;1.77;;
65665;SDS011;52365;47.464;18.976;2024-03-17T01:54:06;2.70;;;1.73;;
65665;SDS011;52365;47.464;18.976;2024-03-17T01:54:28;3.65;;;2.05;;
65665;SDS011;52365;47.464;18.976;2024-03-17T01:54:49;2.90;;;1.98;;
65665;SDS011;52365;47.464;18.976;2024-03-17T01:55:10;2.80;;;1.90;;
65665;SDS011;52365;47.464;18.976;2024-03-17T01:55:35;2.35;;;1.85;;
65665;SDS011;52365;47.464;18.976;2024-03-17T01:55:58;2.15;;;1.70;;
65665;SDS011;52365;47.464;18.976;2024-03-17T01:56:16;2.30;;;1.80;;
65665;SDS011;52365;47.464;18.976;2024-03-17T01:56:38;2.33;;;1.80;;
65665;SDS011;52365;47.464;18.976;2024-03-17T01:56:59;2.50;;;1.80;;
65665;SDS011;52365;47.464;18.976;2024-03-17T01:57:20;2.60;;;1.80;;
65665;SDS011;52365;47.464;18.976;2024-03-17T01:57:41;2.30;;;1.73;;
65665;SDS011;52365;47.464;18.976;2024-03-17T01:58:02;2.25;;;1.77;;
65665;SDS011;52365;47.464;18.976;2024-03-17T01:58:20;2.70;;;2.00;;
65665;SDS011;52365;47.464;18.976;2024-03-17T01:58:42;2.80;;;2.12;;
65665;SDS011;52365;47.464;18.976;2024-03-17T01:59:05;2.70;;;1.83;;
65665;SDS011;52365;47.464;18.976;2024-03-17T01:59:26;2.83;;;1.80;;
65665;SDS011;52365;47.464;18.976;2024-03-17T01:59:47;2.92;;;1.73;;
65665;SDS011;52365;47.464;18.976;2024-03-17T02:00:09;3.45;;;1.95;;
65665;SDS011;52365;47.464;18.976;2024-03-17T02:00:33;4.05;;;1.80;;
65665;SDS011;52365;47.464;18.976;2024-03-17T02:00:56;3.75;;;1.80;;
65665;SDS011;52365;47.464;18.976;2024-03-17T02:01:17;2.90;;;1.90;;
65665;SDS011;52365;47.464;18.976;2024-03-17T02:01:39;2.60;;;1.90;;
65665;SDS011;52365;47.464;18.976;2024-03-17T02:02:02;2.70;;;2.00;;
65665;SDS011;52365;47.464;18.976;2024-03-17T02:02:23;2.67;;;1.90;;
65665;SDS011;52365;47.464;18.976;2024-03-17T02:02:44;2.80;;;1.70;;
65665;SDS011;52365;47.464;18.976;2024-03-17T02:03:05;3.37;;;1.73;;
65665;SDS011;52365;47.464;18.976;2024-03-17T02:03:29;2.83;;;1.90;;
65665;SDS011;52365;47.464;18.976;2024-03-17T02:03:50;2.20;;;1.70;;
65665;SDS011;52365;47.464;18.976;2024-03-17T02:04:06;2.33;;;1.67;;
65665;SDS011;52365;47.464;18.976;2024-03-17T02:04:27;2.78;;;1.83;;
65665;SDS011;52365;47.464;18.976;2024-03-17T02:04:49;2.10;;;1.70;;
65665;SDS011;52365;47.464;18.976;2024-03-17T02:05:11;2.15;;;1.70;;
65665;SDS011;52365;47.464;18.976;2024-03-17T02:05:32;2.97;;;1.77;;
65665;SDS011;52365;47.464;18.976;2024-03-17T02:05:54;3.67;;;1.80;;
65665;SDS011;52365;47.464;18.976;2024-03-17T02:06:15;3.70;;;1.98;;
65665;SDS011;52365;47.464;18.976;2024-03-17T02:06:37;3.30;;;2.00;;
65665;SDS011;52365;47.464;18.976;2024-03-17T02:06:57;3.45;;;2.00;;